createdAt,value
2022-12-20T00:01:52.476Z,3.10
2022-12-20T00:04:20.459Z,3.07
2022-12-20T00:06:48.610Z,3.05
2022-12-20T00:09:16.929Z,3.03
2022-12-20T00:11:45.071Z,3.06
2022-12-20T00:14:13.052Z,3.09
2022-12-20T00:16:41.003Z,3.09
2022-12-20T00:19:11.393Z,3.03
2022-12-20T00:21:39.563Z,2.98
2022-12-20T00:24:07.776Z,2.94
2022-12-20T00:26:36.223Z,2.96
2022-12-20T00:29:05.393Z,2.91
2022-12-20T00:31:33.826Z,2.82
2022-12-20T00:34:02.219Z,2.77
2022-12-20T00:36:32.568Z,2.78
2022-12-20T00:39:01.594Z,2.77
2022-12-20T00:41:33.499Z,2.74
2022-12-20T00:44:03.082Z,2.74
2022-12-20T00:46:32.366Z,2.71
2022-12-20T00:49:00.648Z,2.71
2022-12-20T00:51:30.107Z,2.70
2022-12-20T00:53:58.227Z,2.65
2022-12-20T00:56:26.498Z,2.64
2022-12-20T00:58:59.823Z,2.64
2022-12-20T01:01:31.032Z,2.61
2022-12-20T01:03:59.271Z,2.61
2022-12-20T01:06:28.107Z,2.64
2022-12-20T01:08:57.184Z,2.62
2022-12-20T01:11:30.581Z,2.64
2022-12-20T01:14:02.167Z,2.68
2022-12-20T01:16:33.341Z,2.77
2022-12-20T01:19:01.760Z,2.84
2022-12-20T01:21:29.980Z,2.84
2022-12-20T01:23:58.072Z,2.83
2022-12-20T01:26:28.950Z,2.76
2022-12-20T01:28:59.845Z,2.81
2022-12-20T01:31:29.082Z,2.77
2022-12-20T01:33:57.815Z,2.73
2022-12-20T01:36:32.415Z,2.81
2022-12-20T01:39:04.609Z,2.84
2022-12-20T01:41:33.806Z,2.85
2022-12-20T01:44:03.514Z,2.81
2022-12-20T01:46:34.289Z,2.89
2022-12-20T01:49:24.284Z,2.90
2022-12-20T01:51:58.188Z,2.85
2022-12-20T01:54:31.719Z,2.81
2022-12-20T01:57:03.819Z,2.91
2022-12-20T01:59:35.560Z,2.93
2022-12-20T02:02:07.785Z,2.91
2022-12-20T02:04:38.723Z,2.90
2022-12-20T02:07:08.726Z,2.87
2022-12-20T02:09:38.801Z,2.88
2022-12-20T02:12:15.519Z,2.91
2022-12-20T02:15:18.073Z,2.91
2022-12-20T02:17:55.555Z,2.85
2022-12-20T02:20:38.673Z,2.91
2022-12-20T02:23:35.279Z,2.92
2022-12-20T02:26:21.833Z,2.92
2022-12-20T02:29:08.211Z,2.98
2022-12-20T02:31:46.720Z,3.08
2022-12-20T02:34:17.482Z,3.11
2022-12-20T02:36:45.633Z,3.11
2022-12-20T02:39:16.999Z,3.14
2022-12-20T02:42:12.068Z,3.16
2022-12-20T02:45:05.076Z,3.13
2022-12-20T02:48:10.840Z,3.06
2022-12-20T02:50:44.667Z,3.11
2022-12-20T02:53:13.866Z,3.16
2022-12-20T02:55:54.107Z,3.12
2022-12-20T02:58:30.091Z,3.18
2022-12-20T03:01:04.564Z,3.19
2022-12-20T03:03:34.728Z,3.18
2022-12-20T03:06:02.886Z,3.15
2022-12-20T03:08:31.424Z,3.11
2022-12-20T03:10:59.794Z,3.09
2022-12-20T03:13:28.934Z,2.98
2022-12-20T03:16:00.905Z,2.98
2022-12-20T03:18:29.122Z,2.93
2022-12-20T03:20:57.024Z,2.93
2022-12-20T03:23:24.835Z,2.90
2022-12-20T03:25:53.074Z,2.86
2022-12-20T03:28:28.335Z,2.82
2022-12-20T03:30:56.778Z,2.84
2022-12-20T03:33:24.787Z,2.86
2022-12-20T03:35:53.134Z,2.94
2022-12-20T03:38:22.262Z,2.84
2022-12-20T03:40:50.479Z,2.82
2022-12-20T03:43:20.923Z,2.83
2022-12-20T03:45:48.988Z,2.84
2022-12-20T03:48:17.117Z,2.82
2022-12-20T03:50:45.132Z,2.96
2022-12-20T03:53:13.240Z,2.96
2022-12-20T03:55:45.180Z,2.93
2022-12-20T03:58:13.915Z,2.91
2022-12-20T04:00:42.276Z,2.86
2022-12-20T04:03:30.446Z,2.82
2022-12-20T04:05:58.365Z,2.85
2022-12-20T04:08:26.289Z,2.93
2022-12-20T04:11:13.064Z,3.02
2022-12-20T04:14:01.064Z,3.02
2022-12-20T04:16:30.345Z,3.04
2022-12-20T04:18:58.531Z,3.02
2022-12-20T04:21:32.525Z,3.02
2022-12-20T04:24:02.315Z,3.01
2022-12-20T04:26:38.653Z,3.02
2022-12-20T04:29:06.856Z,3.08
2022-12-20T04:31:35.197Z,3.14
2022-12-20T04:34:03.383Z,3.11
2022-12-20T04:36:32.583Z,3.12
2022-12-20T04:39:01.005Z,3.16
2022-12-20T04:41:31.203Z,3.12
2022-12-20T04:44:02.130Z,3.16
2022-12-20T04:46:35.821Z,3.18
2022-12-20T04:49:04.434Z,3.24
2022-12-20T04:51:34.372Z,3.26
2022-12-20T04:54:02.588Z,3.29
2022-12-20T04:56:45.085Z,3.25
2022-12-20T04:59:16.746Z,3.27
2022-12-20T05:01:46.486Z,3.28
2022-12-20T05:04:18.428Z,3.31
2022-12-20T05:06:48.323Z,3.31
2022-12-20T05:09:16.874Z,3.27
2022-12-20T05:11:45.355Z,3.27
2022-12-20T05:14:13.636Z,3.28
2022-12-20T05:16:41.997Z,3.31
2022-12-20T05:19:10.659Z,3.37
2022-12-20T05:21:58.801Z,3.33
2022-12-20T05:24:45.588Z,3.31
2022-12-20T05:27:30.650Z,3.30
2022-12-20T05:29:59.090Z,3.29
2022-12-20T05:32:29.257Z,3.27
2022-12-20T05:34:57.407Z,3.32
2022-12-20T05:37:26.751Z,3.28
2022-12-20T05:39:55.935Z,3.16
2022-12-20T05:42:24.202Z,3.09
2022-12-20T05:44:53.001Z,3.07
2022-12-20T05:47:22.409Z,3.03
2022-12-20T05:49:55.813Z,2.93
2022-12-20T05:52:24.030Z,2.88
2022-12-20T05:54:53.563Z,2.90
2022-12-20T05:57:27.703Z,2.86
2022-12-20T05:59:56.633Z,2.84
2022-12-20T06:02:25.990Z,2.83
2022-12-20T06:05:02.978Z,2.81
2022-12-20T06:07:34.005Z,2.76
2022-12-20T06:10:02.669Z,2.74
2022-12-20T06:12:51.636Z,2.70
2022-12-20T06:15:20.676Z,2.72
2022-12-20T06:17:49.094Z,2.76
2022-12-20T06:20:18.135Z,2.82
2022-12-20T06:22:48.360Z,2.94
2022-12-20T06:25:17.520Z,2.93
2022-12-20T06:27:45.670Z,2.90
2022-12-20T06:30:16.722Z,2.89
2022-12-20T06:32:53.744Z,3.01
2022-12-20T06:35:22.290Z,3.02
2022-12-20T06:37:50.815Z,3.13
2022-12-20T06:40:19.476Z,3.18
2022-12-20T06:42:47.387Z,3.19
2022-12-20T06:45:16.803Z,3.12
2022-12-20T06:47:45.719Z,3.09
2022-12-20T06:50:13.994Z,3.11
2022-12-20T06:52:43.488Z,3.12
2022-12-20T06:55:43.081Z,3.22
2022-12-20T06:58:11.859Z,3.24
2022-12-20T07:00:40.041Z,3.21
2022-12-20T07:03:08.291Z,3.22
2022-12-20T07:05:36.757Z,3.22
2022-12-20T07:08:06.062Z,3.30
2022-12-20T07:10:37.030Z,3.30
2022-12-20T07:13:05.445Z,3.32
2022-12-20T07:15:33.936Z,3.23
2022-12-20T07:18:02.145Z,3.15
2022-12-20T07:20:30.803Z,3.05
2022-12-20T07:23:17.624Z,3.01
2022-12-20T07:25:55.941Z,2.92
2022-12-20T07:28:26.140Z,2.95
2022-12-20T07:30:55.052Z,2.94
2022-12-20T07:33:24.427Z,2.95
2022-12-20T07:36:01.060Z,2.91
2022-12-20T07:38:30.160Z,2.88
2022-12-20T07:40:58.631Z,2.84
2022-12-20T07:43:26.742Z,2.84
2022-12-20T07:45:58.069Z,2.73
2022-12-20T07:48:26.066Z,2.70
2022-12-20T07:51:01.280Z,2.69
2022-12-20T07:53:33.491Z,2.78
2022-12-20T07:56:02.771Z,2.80
2022-12-20T07:58:32.743Z,2.80
2022-12-20T08:01:02.049Z,2.81
2022-12-20T08:03:36.550Z,2.95
2022-12-20T08:06:06.726Z,2.90
2022-12-20T08:08:38.793Z,2.90
2022-12-20T08:11:10.469Z,2.94
2022-12-20T08:13:45.932Z,2.91
2022-12-20T08:16:14.695Z,2.94
2022-12-20T08:18:42.846Z,3.01
2022-12-20T08:21:13.012Z,3.07
2022-12-20T08:23:41.385Z,3.13
2022-12-20T08:26:09.280Z,3.22
2022-12-20T08:28:38.137Z,3.37
2022-12-20T08:31:08.241Z,3.52
2022-12-20T08:33:38.163Z,3.52
2022-12-20T08:36:12.707Z,3.52
2022-12-20T08:38:41.039Z,3.50
2022-12-20T08:41:11.515Z,3.64
2022-12-20T08:43:40.681Z,3.74
2022-12-20T08:46:10.352Z,3.78
2022-12-20T08:48:38.327Z,3.83
2022-12-20T08:51:09.854Z,3.86
2022-12-20T08:53:39.503Z,3.90
2022-12-20T08:56:13.302Z,3.95
2022-12-20T08:58:44.959Z,4.04
2022-12-20T09:01:15.800Z,4.06
2022-12-20T09:03:44.811Z,4.12
2022-12-20T09:06:15.911Z,4.12
2022-12-20T09:08:44.092Z,4.17
2022-12-20T09:11:15.112Z,4.32
2022-12-20T09:13:45.855Z,4.48
2022-12-20T09:16:16.456Z,4.58
2022-12-20T09:18:44.611Z,4.61
2022-12-20T09:21:12.559Z,4.64
2022-12-20T09:23:41.035Z,4.69
2022-12-20T09:26:17.252Z,4.76
2022-12-20T09:28:46.489Z,4.90
2022-12-20T09:31:26.550Z,4.85
2022-12-20T09:33:59.751Z,4.84
2022-12-20T09:36:29.295Z,4.79
2022-12-20T09:38:58.184Z,4.82
2022-12-20T09:41:43.284Z,4.89
2022-12-20T09:44:26.360Z,4.91
2022-12-20T09:46:58.518Z,4.85
2022-12-20T09:49:32.022Z,5.04
2022-12-20T09:52:21.858Z,5.07
2022-12-20T09:55:09.307Z,5.04
2022-12-20T09:58:08.233Z,5.07
2022-12-20T10:00:41.522Z,5.01
2022-12-20T10:03:18.563Z,4.96
2022-12-20T10:06:02.928Z,5.01
2022-12-20T10:08:47.270Z,5.04
2022-12-20T10:11:21.845Z,5.05
2022-12-20T10:14:37.468Z,5.11
2022-12-20T10:17:13.311Z,5.01
2022-12-20T10:20:09.002Z,5.06
2022-12-20T10:22:50.774Z,5.04
2022-12-20T10:25:25.215Z,5.10
2022-12-20T10:27:57.158Z,5.19
2022-12-20T10:30:27.566Z,5.28
2022-12-20T10:32:58.053Z,5.47
2022-12-20T10:35:33.243Z,5.64
2022-12-20T10:38:10.127Z,5.81
2022-12-20T10:43:43.130Z,6.07
2022-12-20T10:46:13.482Z,6.19
2022-12-20T10:48:43.816Z,6.23
2022-12-20T10:51:20.775Z,6.38
2022-12-20T10:53:56.681Z,6.44
2022-12-20T10:56:31.905Z,6.48
2022-12-20T10:59:21.345Z,6.52
2022-12-20T11:01:50.187Z,6.55
2022-12-20T11:04:42.250Z,6.58
2022-12-20T11:07:26.227Z,6.59
2022-12-20T11:10:00.700Z,6.51
2022-12-20T11:12:29.412Z,6.50
2022-12-20T11:15:19.782Z,6.52
2022-12-20T11:17:54.415Z,6.53
2022-12-20T11:20:32.602Z,6.53
2022-12-20T11:23:47.027Z,6.56
2022-12-20T11:26:30.616Z,6.57
2022-12-20T11:29:04.713Z,6.58
2022-12-20T11:31:42.923Z,6.65
2022-12-20T11:34:16.751Z,6.59
2022-12-20T11:37:18.170Z,6.57
2022-12-20T11:40:17.081Z,6.52
2022-12-20T11:42:51.379Z,6.47
2022-12-20T11:45:28.100Z,6.51
2022-12-20T11:48:09.959Z,6.56
2022-12-20T11:50:59.270Z,6.61
2022-12-20T11:53:40.927Z,6.62
2022-12-20T11:56:44.370Z,6.64
2022-12-20T11:59:27.105Z,6.54
2022-12-20T12:02:21.121Z,6.42
2022-12-20T12:05:07.814Z,6.38
2022-12-20T12:07:41.451Z,6.37
2022-12-20T12:10:23.613Z,6.40
2022-12-20T12:13:07.296Z,6.38
2022-12-20T12:15:57.616Z,6.40
2022-12-20T12:18:31.377Z,6.37
2022-12-20T12:21:09.464Z,6.38
2022-12-20T12:24:14.566Z,6.38
2022-12-20T12:26:42.504Z,6.40
2022-12-20T12:29:13.949Z,6.44
2022-12-20T12:32:00.720Z,6.57
2022-12-20T12:35:26.183Z,6.55
2022-12-20T12:38:15.709Z,6.62
2022-12-20T12:41:02.766Z,6.84
2022-12-20T12:43:51.749Z,6.90
2022-12-20T12:46:24.179Z,6.97
2022-12-20T12:49:04.409Z,7.05
2022-12-20T12:51:40.253Z,7.08
2022-12-20T12:54:10.089Z,7.12
2022-12-20T12:56:44.708Z,7.07
2022-12-20T12:59:35.443Z,7.05
2022-12-20T13:02:06.849Z,7.01
2022-12-20T13:04:54.586Z,6.95
2022-12-20T13:07:25.940Z,6.90
2022-12-20T13:09:54.670Z,6.82
2022-12-20T13:12:38.249Z,6.91
2022-12-20T13:15:21.571Z,7.01
2022-12-20T13:17:53.021Z,7.18
2022-12-20T13:20:30.008Z,7.30
2022-12-20T13:23:13.309Z,7.21
2022-12-20T13:25:45.835Z,7.10
2022-12-20T13:28:17.226Z,7.04
2022-12-20T13:30:47.791Z,6.97
2022-12-20T13:33:19.395Z,6.96
2022-12-20T13:35:56.450Z,6.82
2022-12-20T13:38:43.157Z,6.70
2022-12-20T13:41:25.002Z,6.60
2022-12-20T13:43:59.165Z,6.49
2022-12-20T13:46:31.250Z,6.42
2022-12-20T13:49:10.852Z,6.39
2022-12-20T13:51:39.744Z,6.34
2022-12-20T13:54:25.076Z,6.21
2022-12-20T13:56:57.433Z,6.18
2022-12-20T13:59:31.848Z,6.12
2022-12-20T14:02:04.573Z,6.02
2022-12-20T14:04:43.476Z,5.94
2022-12-20T14:07:16.697Z,5.89
2022-12-20T14:09:47.748Z,5.78
2022-12-20T14:12:26.213Z,5.65
2022-12-20T14:14:57.896Z,5.66
2022-12-20T14:17:32.403Z,5.65
2022-12-20T14:20:14.215Z,5.54
2022-12-20T14:22:47.705Z,5.49
2022-12-20T14:25:31.367Z,5.42
2022-12-20T14:28:00.236Z,5.47
2022-12-20T14:30:43.006Z,5.50
2022-12-20T14:33:21.849Z,5.35
2022-12-20T14:35:51.889Z,5.27
2022-12-20T14:38:29.188Z,5.32
2022-12-20T14:40:57.813Z,5.36
2022-12-20T14:43:37.255Z,5.41
2022-12-20T14:46:23.988Z,5.28
2022-12-20T14:49:32.968Z,5.21
2022-12-20T14:52:12.358Z,5.21
2022-12-20T14:57:36.424Z,5.15
2022-12-20T15:00:16.070Z,5.06
2022-12-20T15:03:01.093Z,5.07
2022-12-20T15:05:41.383Z,5.10
2022-12-20T15:08:14.322Z,5.11
2022-12-20T15:10:52.502Z,5.04
2022-12-20T15:13:36.746Z,5.00
2022-12-20T15:16:08.373Z,4.96
2022-12-20T15:18:37.470Z,5.04
2022-12-20T15:21:15.130Z,5.03
2022-12-20T15:23:48.389Z,5.05
2022-12-20T15:26:18.714Z,5.05
2022-12-20T15:28:47.550Z,5.06
2022-12-20T15:31:23.761Z,5.12
2022-12-20T15:33:58.225Z,5.21
2022-12-20T15:36:29.185Z,5.20
2022-12-20T15:39:15.647Z,5.24
2022-12-20T15:41:48.105Z,5.35
2022-12-20T15:44:20.050Z,5.37
2022-12-20T15:46:49.020Z,5.24
2022-12-20T15:49:19.506Z,5.18
2022-12-20T15:51:50.432Z,5.21
2022-12-20T15:54:22.982Z,5.18
2022-12-20T15:56:51.658Z,5.15
2022-12-20T15:59:57.788Z,5.16
2022-12-20T16:02:31.656Z,5.15
2022-12-20T16:05:02.131Z,5.10
2022-12-20T16:07:32.195Z,5.00
2022-12-20T16:10:01.095Z,4.97
2022-12-20T16:12:35.596Z,4.96
2022-12-20T16:15:05.484Z,4.88
2022-12-20T16:17:33.830Z,4.96
2022-12-20T16:20:02.245Z,4.95
2022-12-20T16:22:36.165Z,4.97
2022-12-20T16:25:07.632Z,4.95
2022-12-20T16:27:37.379Z,4.95
2022-12-20T16:30:07.068Z,4.92
2022-12-20T16:32:37.470Z,4.85
2022-12-20T16:35:07.364Z,4.77
2022-12-20T16:37:41.508Z,4.71
2022-12-20T16:40:16.033Z,4.71
2022-12-20T16:42:46.402Z,4.76
2022-12-20T16:45:22.091Z,4.81
2022-12-20T16:47:51.676Z,4.90
2022-12-20T16:50:25.192Z,5.00
2022-12-20T16:52:59.294Z,5.07
2022-12-20T16:55:29.633Z,5.03
2022-12-20T16:58:01.296Z,5.03
2022-12-20T17:00:30.812Z,5.07
2022-12-20T17:03:00.821Z,5.23
2022-12-20T17:05:37.669Z,5.19
2022-12-20T17:10:54.234Z,5.17
2022-12-20T17:13:23.779Z,5.06
2022-12-20T17:15:53.137Z,5.03
2022-12-20T17:18:22.116Z,4.88
2022-12-20T17:20:51.254Z,4.83
2022-12-20T17:26:06.072Z,4.90
2022-12-20T17:28:34.585Z,4.96
2022-12-20T17:31:08.015Z,5.03
2022-12-20T17:33:39.690Z,5.07
2022-12-20T17:36:08.681Z,5.14
2022-12-20T17:38:37.249Z,5.16
2022-12-20T17:41:06.050Z,5.09
2022-12-20T17:43:34.042Z,5.10
2022-12-20T17:46:02.706Z,5.02
2022-12-20T17:48:33.998Z,4.96
2022-12-20T17:51:17.861Z,5.06
2022-12-20T17:53:47.911Z,5.04
2022-12-20T17:56:37.234Z,5.01
2022-12-20T17:59:05.860Z,4.97
2022-12-20T18:01:35.935Z,4.99
2022-12-20T18:04:13.543Z,5.08
2022-12-20T18:06:44.369Z,5.22
2022-12-20T18:09:21.795Z,5.22
2022-12-20T18:11:50.145Z,5.21
2022-12-20T18:14:19.723Z,5.18
2022-12-20T18:16:50.202Z,5.24
2022-12-20T18:19:19.770Z,5.09
2022-12-20T18:21:49.594Z,4.99
2022-12-20T18:24:22.616Z,4.96
2022-12-20T18:26:53.661Z,4.97
2022-12-20T18:29:23.389Z,4.97
2022-12-20T18:31:52.720Z,5.07
2022-12-20T18:34:23.620Z,5.08
2022-12-20T18:36:53.681Z,5.13
2022-12-20T18:39:22.753Z,5.18
2022-12-20T18:41:52.263Z,5.00
2022-12-20T18:44:28.198Z,5.03
2022-12-20T18:47:01.952Z,5.03
2022-12-20T18:49:33.847Z,4.99
2022-12-20T18:52:03.308Z,4.92
2022-12-20T18:54:32.465Z,4.87
2022-12-20T18:57:06.925Z,4.77
2022-12-20T18:59:37.399Z,4.80
2022-12-20T19:02:10.170Z,4.88
2022-12-20T19:04:41.229Z,4.83
2022-12-20T19:07:11.638Z,4.82
2022-12-20T19:09:41.054Z,4.95
2022-12-20T19:12:12.924Z,5.01
2022-12-20T19:14:41.647Z,4.96
2022-12-20T19:17:17.319Z,5.11
2022-12-20T19:19:48.591Z,5.06
2022-12-20T19:22:19.001Z,4.97
2022-12-20T19:24:48.832Z,4.85
2022-12-20T19:27:17.598Z,4.83
2022-12-20T19:29:47.217Z,4.87
2022-12-20T19:32:16.179Z,4.90
2022-12-20T19:34:45.215Z,4.93
2022-12-20T19:37:14.900Z,4.94
2022-12-20T19:39:44.320Z,4.98
2022-12-20T19:42:24.298Z,4.93
2022-12-20T19:44:53.999Z,4.88
2022-12-20T19:47:25.513Z,4.91
2022-12-20T19:49:54.513Z,4.90
2022-12-20T19:52:29.805Z,4.91
2022-12-20T19:54:59.652Z,4.85
2022-12-20T19:57:28.475Z,4.81
2022-12-20T19:59:57.993Z,4.75
2022-12-20T20:02:27.075Z,4.78
2022-12-20T20:04:56.348Z,4.76
2022-12-20T20:07:24.965Z,4.77
2022-12-20T20:09:53.577Z,4.81
2022-12-20T20:12:23.107Z,4.82
2022-12-20T20:14:53.329Z,4.86
2022-12-20T20:17:22.402Z,4.86
2022-12-20T20:19:53.540Z,4.92
2022-12-20T20:22:23.289Z,4.89
2022-12-20T20:24:52.551Z,4.93
2022-12-20T20:27:21.183Z,4.93
2022-12-20T20:29:51.307Z,4.92
2022-12-20T20:32:20.544Z,4.98
2022-12-20T20:34:50.571Z,4.89
2022-12-20T20:37:19.729Z,4.88
2022-12-20T20:39:48.946Z,4.82
2022-12-20T20:42:23.040Z,4.75
2022-12-20T20:44:53.072Z,4.84
2022-12-20T20:47:21.845Z,4.92
2022-12-20T20:49:52.877Z,4.84
2022-12-20T20:52:22.022Z,4.75
2022-12-20T20:54:50.878Z,4.66
2022-12-20T20:57:19.033Z,4.71
2022-12-20T20:59:48.072Z,4.69
2022-12-20T21:02:21.730Z,4.65
2022-12-20T21:05:24.596Z,4.65
2022-12-20T21:07:40.065Z,4.71
2022-12-20T21:10:09.150Z,4.68
2022-12-20T21:12:37.736Z,4.51
2022-12-20T21:15:24.812Z,4.49
2022-12-20T21:17:53.896Z,4.56
2022-12-20T21:20:26.463Z,4.51
2022-12-20T21:22:56.455Z,4.53
2022-12-20T21:25:27.070Z,4.54
2022-12-20T21:27:57.247Z,4.53
2022-12-20T21:30:26.144Z,4.59
2022-12-20T21:32:54.912Z,4.65
2022-12-20T21:35:24.244Z,4.79
2022-12-20T21:37:53.557Z,4.70
2022-12-20T21:40:22.267Z,4.74
2022-12-20T21:42:51.129Z,4.79
2022-12-20T21:45:20.313Z,4.79
2022-12-20T21:47:49.001Z,4.78
2022-12-20T21:50:17.357Z,4.65
2022-12-20T21:52:45.708Z,4.64
2022-12-20T21:55:15.143Z,4.66
2022-12-20T21:57:44.135Z,4.71
2022-12-20T22:00:13.195Z,4.70
2022-12-20T22:02:41.620Z,4.64
2022-12-20T22:05:13.574Z,4.61
2022-12-20T22:07:42.069Z,4.62
2022-12-20T22:10:10.628Z,4.68
2022-12-20T22:12:38.916Z,4.73
2022-12-20T22:15:07.948Z,4.85
2022-12-20T22:17:36.935Z,4.92
2022-12-20T22:20:08.762Z,5.01
2022-12-20T22:22:37.801Z,5.01
2022-12-20T22:25:06.635Z,4.96
2022-12-20T22:27:35.547Z,4.89
2022-12-20T22:30:04.789Z,4.77
2022-12-20T22:32:32.866Z,4.77
2022-12-20T22:35:01.067Z,4.78
2022-12-20T22:37:29.671Z,4.85
2022-12-20T22:39:57.612Z,4.87
2022-12-20T22:42:25.901Z,4.98
2022-12-20T22:44:54.373Z,5.19
2022-12-20T22:47:25.108Z,5.09
2022-12-20T22:49:53.420Z,5.16
2022-12-20T22:52:21.891Z,5.14
2022-12-20T22:54:50.080Z,5.04
2022-12-20T22:57:18.058Z,4.90
2022-12-20T22:59:46.438Z,4.94
2022-12-20T23:02:14.619Z,4.91
2022-12-20T23:04:42.731Z,4.85
2022-12-20T23:07:10.774Z,4.76
2022-12-20T23:09:38.787Z,4.80
2022-12-20T23:12:26.709Z,5.03
2022-12-20T23:15:26.666Z,4.97
2022-12-20T23:17:54.770Z,5.08
2022-12-20T23:20:41.288Z,5.08
2022-12-20T23:23:09.823Z,4.92
2022-12-20T23:25:37.787Z,4.91
2022-12-20T23:28:05.776Z,4.90
2022-12-20T23:30:33.895Z,4.96
2022-12-20T23:33:03.081Z,4.81
2022-12-20T23:35:31.212Z,4.74
2022-12-20T23:38:00.439Z,4.72
2022-12-20T23:40:28.468Z,4.79
2022-12-20T23:42:56.542Z,4.74
2022-12-20T23:45:24.746Z,4.69
2022-12-20T23:47:52.998Z,4.67
2022-12-20T23:50:23.205Z,4.62
2022-12-20T23:52:51.186Z,4.76
2022-12-20T23:55:19.182Z,4.79
2022-12-20T23:57:47.184Z,4.61
